sensor_id;sensor_type;location;lat;lon;timestamp;temperature;humidity
63966;DHT22;50151;52.030;5.350;2023-07-13T08:31:57;19.10;99.90
63966;DHT22;50151;52.030;5.350;2023-07-13T08:34:24;19.00;99.90
63966;DHT22;50151;52.030;5.350;2023-07-13T08:36:51;19.00;99.90
63966;DHT22;50151;52.030;5.350;2023-07-13T08:39:18;19.10;99.90
63966;DHT22;50151;52.030;5.350;2023-07-13T08:41:47;19.20;99.90
63966;DHT22;50151;52.030;5.350;2023-07-13T08:44:30;19.30;99.90
63966;DHT22;50151;52.030;5.350;2023-07-13T08:47:01;19.20;99.90
63966;DHT22;50151;52.030;5.350;2023-07-13T08:49:29;19.20;99.90
63966;DHT22;50151;52.030;5.350;2023-07-13T08:54:51;19.10;99.90
63966;DHT22;50151;52.030;5.350;2023-07-13T08:57:23;19.00;99.90
63966;DHT22;50151;52.030;5.350;2023-07-13T08:59:51;19.00;99.90
63966;DHT22;50151;52.030;5.350;2023-07-13T09:02:27;19.10;99.90
63966;DHT22;50151;52.030;5.350;2023-07-13T09:07:42;18.80;99.90
63966;DHT22;50151;52.030;5.350;2023-07-13T09:10:15;18.70;99.90
63966;DHT22;50151;52.030;5.350;2023-07-13T09:15:31;19.70;99.90
63966;DHT22;50151;52.030;5.350;2023-07-13T09:18:12;20.00;99.90
63966;DHT22;50151;52.030;5.350;2023-07-13T09:20:49;20.00;99.90
63966;DHT22;50151;52.030;5.350;2023-07-13T09:23:21;20.50;99.90
63966;DHT22;50151;52.030;5.350;2023-07-13T09:25:51;20.20;99.90
63966;DHT22;50151;52.030;5.350;2023-07-13T09:28:27;20.10;99.90
63966;DHT22;50151;52.030;5.350;2023-07-13T09:33:24;20.70;99.90
63966;DHT22;50151;52.030;5.350;2023-07-13T09:35:56;20.50;99.90
63966;DHT22;50151;52.030;5.350;2023-07-13T09:38:27;20.50;99.90
63966;DHT22;50151;52.030;5.350;2023-07-13T09:43:26;20.40;99.90
63966;DHT22;50151;52.030;5.350;2023-07-13T09:45:55;20.00;99.90
63966;DHT22;50151;52.030;5.350;2023-07-13T09:48:22;20.10;99.90
63966;DHT22;50151;52.030;5.350;2023-07-13T09:50:54;20.00;99.90
63966;DHT22;50151;52.030;5.350;2023-07-13T09:53:23;20.10;99.90
63966;DHT22;50151;52.030;5.350;2023-07-13T09:55:50;20.10;99.90
63966;DHT22;50151;52.030;5.350;2023-07-13T09:58:21;20.40;99.90
63966;DHT22;50151;52.030;5.350;2023-07-13T10:01:00;20.80;99.90
63966;DHT22;50151;52.030;5.350;2023-07-13T10:03:32;20.60;99.90
63966;DHT22;50151;52.030;5.350;2023-07-13T10:06:16;20.70;99.90
63966;DHT22;50151;52.030;5.350;2023-07-13T10:08:48;20.60;99.90
63966;DHT22;50151;52.030;5.350;2023-07-13T10:11:22;20.50;99.90
63966;DHT22;50151;52.030;5.350;2023-07-13T10:14:01;20.50;99.90
63966;DHT22;50151;52.030;5.350;2023-07-13T10:16:32;20.50;99.90
63966;DHT22;50151;52.030;5.350;2023-07-13T10:19:29;20.40;99.90
63966;DHT22;50151;52.030;5.350;2023-07-13T10:22:00;20.40;99.90
63966;DHT22;50151;52.030;5.350;2023-07-13T10:24:31;20.90;99.90
63966;DHT22;50151;52.030;5.350;2023-07-13T10:27:19;21.40;99.90
63966;DHT22;50151;52.030;5.350;2023-07-13T10:29:59;21.70;99.90
63966;DHT22;50151;52.030;5.350;2023-07-13T10:32:28;21.30;99.90
63966;DHT22;50151;52.030;5.350;2023-07-13T10:34:55;20.90;99.90
63966;DHT22;50151;52.030;5.350;2023-07-13T10:37:31;20.60;99.90
63966;DHT22;50151;52.030;5.350;2023-07-13T10:40:00;20.80;99.90
63966;DHT22;50151;52.030;5.350;2023-07-13T10:42:36;21.10;99.90
63966;DHT22;50151;52.030;5.350;2023-07-13T10:45:19;21.40;99.90
63966;DHT22;50151;52.030;5.350;2023-07-13T10:47:49;21.30;99.90
63966;DHT22;50151;52.030;5.350;2023-07-13T10:50:22;21.20;99.90
63966;DHT22;50151;52.030;5.350;2023-07-13T10:52:52;21.50;99.90
63966;DHT22;50151;52.030;5.350;2023-07-13T10:58:29;21.60;99.90
63966;DHT22;50151;52.030;5.350;2023-07-13T11:01:10;21.60;99.90
63966;DHT22;50151;52.030;5.350;2023-07-13T11:06:38;21.70;99.90
63966;DHT22;50151;52.030;5.350;2023-07-13T11:12:01;21.30;99.90
63966;DHT22;50151;52.030;5.350;2023-07-13T11:16:56;21.20;99.90
63966;DHT22;50151;52.030;5.350;2023-07-13T11:19:27;21.30;99.90
63966;DHT22;50151;52.030;5.350;2023-07-13T11:25:21;21.90;99.90
63966;DHT22;50151;52.030;5.350;2023-07-13T11:28:16;21.80;99.90
63966;DHT22;50151;52.030;5.350;2023-07-13T11:30:59;22.00;99.90
63966;DHT22;50151;52.030;5.350;2023-07-13T11:36:18;21.60;99.90
63966;DHT22;50151;52.030;5.350;2023-07-13T11:39:21;21.30;99.90
63966;DHT22;50151;52.030;5.350;2023-07-13T11:42:09;21.30;99.90
63966;DHT22;50151;52.030;5.350;2023-07-13T11:44:43;22.20;99.90
63966;DHT22;50151;52.030;5.350;2023-07-13T11:47:30;23.10;99.90
63966;DHT22;50151;52.030;5.350;2023-07-13T11:49:58;22.90;99.90
63966;DHT22;50151;52.030;5.350;2023-07-13T11:52:34;23.20;99.90
63966;DHT22;50151;52.030;5.350;2023-07-13T11:55:12;23.10;99.90
63966;DHT22;50151;52.030;5.350;2023-07-13T11:57:45;23.10;99.90
63966;DHT22;50151;52.030;5.350;2023-07-13T12:00:17;22.90;99.90
63966;DHT22;50151;52.030;5.350;2023-07-13T12:02:48;23.10;99.90
63966;DHT22;50151;52.030;5.350;2023-07-13T12:05:18;23.30;99.90
63966;DHT22;50151;52.030;5.350;2023-07-13T12:07:46;22.80;99.90
63966;DHT22;50151;52.030;5.350;2023-07-13T12:10:29;22.90;99.90
63966;DHT22;50151;52.030;5.350;2023-07-13T12:13:00;22.70;99.90
63966;DHT22;50151;52.030;5.350;2023-07-13T12:15:47;22.80;99.90
63966;DHT22;50151;52.030;5.350;2023-07-13T12:18:20;23.40;99.90
63966;DHT22;50151;52.030;5.350;2023-07-13T12:20:49;23.30;99.90
63966;DHT22;50151;52.030;5.350;2023-07-13T12:23:32;22.70;99.90
63966;DHT22;50151;52.030;5.350;2023-07-13T12:26:04;22.60;99.90
63966;DHT22;50151;52.030;5.350;2023-07-13T12:28:37;23.00;99.90
63966;DHT22;50151;52.030;5.350;2023-07-13T12:31:07;23.20;99.90
63966;DHT22;50151;52.030;5.350;2023-07-13T12:33:35;23.30;99.90
63966;DHT22;50151;52.030;5.350;2023-07-13T12:36:06;23.80;99.90
63966;DHT22;50151;52.030;5.350;2023-07-13T12:38:33;24.00;99.90
63966;DHT22;50151;52.030;5.350;2023-07-13T12:41:01;23.40;99.90
63966;DHT22;50151;52.030;5.350;2023-07-13T12:43:33;23.80;99.90
63966;DHT22;50151;52.030;5.350;2023-07-13T12:46:05;23.80;99.90
63966;DHT22;50151;52.030;5.350;2023-07-13T12:48:43;24.20;99.90
63966;DHT22;50151;52.030;5.350;2023-07-13T12:51:25;24.50;99.90
63966;DHT22;50151;52.030;5.350;2023-07-13T12:54:17;23.90;99.90
63966;DHT22;50151;52.030;5.350;2023-07-13T12:56:45;23.80;99.90
63966;DHT22;50151;52.030;5.350;2023-07-13T12:59:21;24.30;99.90
63966;DHT22;50151;52.030;5.350;2023-07-13T13:01:49;24.40;99.90
63966;DHT22;50151;52.030;5.350;2023-07-13T13:04:17;24.00;99.90
63966;DHT22;50151;52.030;5.350;2023-07-13T13:06:49;24.20;99.90
63966;DHT22;50151;52.030;5.350;2023-07-13T13:09:27;23.60;99.90
63966;DHT22;50151;52.030;5.350;2023-07-13T13:11:54;24.50;99.90
63966;DHT22;50151;52.030;5.350;2023-07-13T13:14:21;24.40;99.90
63966;DHT22;50151;52.030;5.350;2023-07-13T13:16:50;23.90;99.90
63966;DHT22;50151;52.030;5.350;2023-07-13T13:19:24;23.80;99.90
63966;DHT22;50151;52.030;5.350;2023-07-13T13:21:54;23.80;99.90
63966;DHT22;50151;52.030;5.350;2023-07-13T13:24:24;24.20;99.90
63966;DHT22;50151;52.030;5.350;2023-07-13T13:26:53;24.10;99.90
63966;DHT22;50151;52.030;5.350;2023-07-13T13:29:22;24.20;99.90
63966;DHT22;50151;52.030;5.350;2023-07-13T13:31:52;24.90;99.90
63966;DHT22;50151;52.030;5.350;2023-07-13T13:34:21;25.40;99.90
63966;DHT22;50151;52.030;5.350;2023-07-13T13:36:53;25.00;99.90
63966;DHT22;50151;52.030;5.350;2023-07-13T13:39:30;25.60;99.90
63966;DHT22;50151;52.030;5.350;2023-07-13T13:41:58;25.10;99.90
63966;DHT22;50151;52.030;5.350;2023-07-13T13:44:25;25.80;99.90
63966;DHT22;50151;52.030;5.350;2023-07-13T13:46:54;25.60;99.90
63966;DHT22;50151;52.030;5.350;2023-07-13T13:49:24;25.10;99.90
63966;DHT22;50151;52.030;5.350;2023-07-13T13:51:53;26.20;99.90
63966;DHT22;50151;52.030;5.350;2023-07-13T13:54:21;26.50;99.90
63966;DHT22;50151;52.030;5.350;2023-07-13T13:56:50;26.60;99.90
63966;DHT22;50151;52.030;5.350;2023-07-13T13:59:18;26.80;99.90
63966;DHT22;50151;52.030;5.350;2023-07-13T14:01:47;25.90;99.90
63966;DHT22;50151;52.030;5.350;2023-07-13T14:04:19;25.80;99.90
63966;DHT22;50151;52.030;5.350;2023-07-13T14:06:46;25.40;99.90
63966;DHT22;50151;52.030;5.350;2023-07-13T14:09:16;24.80;99.90
63966;DHT22;50151;52.030;5.350;2023-07-13T14:11:45;24.70;99.90
63966;DHT22;50151;52.030;5.350;2023-07-13T14:14:21;24.90;99.90
63966;DHT22;50151;52.030;5.350;2023-07-13T14:16:50;25.50;99.90
63966;DHT22;50151;52.030;5.350;2023-07-13T14:19:22;24.90;99.90
63966;DHT22;50151;52.030;5.350;2023-07-13T14:21:49;24.80;99.90
63966;DHT22;50151;52.030;5.350;2023-07-13T14:24:16;25.10;99.90
63966;DHT22;50151;52.030;5.350;2023-07-13T14:26:46;25.00;99.90
63966;DHT22;50151;52.030;5.350;2023-07-13T14:29:17;24.80;99.90
63966;DHT22;50151;52.030;5.350;2023-07-13T14:31:49;25.20;99.90
63966;DHT22;50151;52.030;5.350;2023-07-13T14:34:16;25.20;99.90
63966;DHT22;50151;52.030;5.350;2023-07-13T14:36:46;25.10;99.90
63966;DHT22;50151;52.030;5.350;2023-07-13T14:39:23;25.00;99.90
63966;DHT22;50151;52.030;5.350;2023-07-13T14:41:53;25.00;99.90
63966;DHT22;50151;52.030;5.350;2023-07-13T14:44:24;24.60;99.90
63966;DHT22;50151;52.030;5.350;2023-07-13T14:46:52;24.30;99.90
63966;DHT22;50151;52.030;5.350;2023-07-13T14:49:28;24.20;99.90
63966;DHT22;50151;52.030;5.350;2023-07-13T14:52:32;23.80;99.90
63966;DHT22;50151;52.030;5.350;2023-07-13T14:54:59;23.60;99.90
63966;DHT22;50151;52.030;5.350;2023-07-13T14:57:26;24.00;99.90
63966;DHT22;50151;52.030;5.350;2023-07-13T14:59:53;23.70;99.90
63966;DHT22;50151;52.030;5.350;2023-07-13T15:02:37;23.90;99.90
63966;DHT22;50151;52.030;5.350;2023-07-13T15:05:19;24.30;99.90
63966;DHT22;50151;52.030;5.350;2023-07-13T15:07:49;24.30;99.90
63966;DHT22;50151;52.030;5.350;2023-07-13T15:10:21;24.00;99.90
63966;DHT22;50151;52.030;5.350;2023-07-13T15:12:51;23.80;99.90
63966;DHT22;50151;52.030;5.350;2023-07-13T15:15:20;23.80;99.90
63966;DHT22;50151;52.030;5.350;2023-07-13T15:17:47;23.60;99.90
63966;DHT22;50151;52.030;5.350;2023-07-13T15:20:16;23.40;99.90
63966;DHT22;50151;52.030;5.350;2023-07-13T15:22:45;23.40;99.90
63966;DHT22;50151;52.030;5.350;2023-07-13T15:25:21;23.50;99.90
63966;DHT22;50151;52.030;5.350;2023-07-13T15:27:48;23.80;99.90
63966;DHT22;50151;52.030;5.350;2023-07-13T15:30:15;23.80;99.90
63966;DHT22;50151;52.030;5.350;2023-07-13T15:32:43;23.60;99.90
63966;DHT22;50151;52.030;5.350;2023-07-13T15:35:20;23.60;99.90
63966;DHT22;50151;52.030;5.350;2023-07-13T15:37:48;23.60;99.90
63966;DHT22;50151;52.030;5.350;2023-07-13T15:40:17;24.10;99.90
63966;DHT22;50151;52.030;5.350;2023-07-13T15:42:45;24.20;99.90
63966;DHT22;50151;52.030;5.350;2023-07-13T15:45:21;24.30;99.90
63966;DHT22;50151;52.030;5.350;2023-07-13T15:47:52;23.80;99.90
63966;DHT22;50151;52.030;5.350;2023-07-13T15:50:22;23.60;99.90
63966;DHT22;50151;52.030;5.350;2023-07-13T15:52:52;23.60;99.90
63966;DHT22;50151;52.030;5.350;2023-07-13T15:55:20;23.70;99.90
63966;DHT22;50151;52.030;5.350;2023-07-13T15:57:49;24.10;99.90
63966;DHT22;50151;52.030;5.350;2023-07-13T16:00:26;24.10;99.90
63966;DHT22;50151;52.030;5.350;2023-07-13T16:02:53;24.20;99.90
63966;DHT22;50151;52.030;5.350;2023-07-13T16:05:22;24.20;99.90
63966;DHT22;50151;52.030;5.350;2023-07-13T16:07:51;23.80;99.90
63966;DHT22;50151;52.030;5.350;2023-07-13T16:10:25;23.90;99.90
63966;DHT22;50151;52.030;5.350;2023-07-13T16:12:53;24.00;99.90
63966;DHT22;50151;52.030;5.350;2023-07-13T16:15:22;24.20;99.90
63966;DHT22;50151;52.030;5.350;2023-07-13T16:17:49;23.90;99.90
63966;DHT22;50151;52.030;5.350;2023-07-13T16:20:18;24.10;99.90
63966;DHT22;50151;52.030;5.350;2023-07-13T16:22:50;24.10;99.90
63966;DHT22;50151;52.030;5.350;2023-07-13T16:25:24;24.00;99.90
63966;DHT22;50151;52.030;5.350;2023-07-13T16:27:54;23.90;99.90
63966;DHT22;50151;52.030;5.350;2023-07-13T16:30:28;24.10;99.90
63966;DHT22;50151;52.030;5.350;2023-07-13T16:32:58;24.00;99.90
63966;DHT22;50151;52.030;5.350;2023-07-13T16:35:32;24.10;99.90
63966;DHT22;50151;52.030;5.350;2023-07-13T16:38:04;24.00;99.90
63966;DHT22;50151;52.030;5.350;2023-07-13T16:40:36;24.00;99.90
63966;DHT22;50151;52.030;5.350;2023-07-13T16:43:08;24.20;99.90
63966;DHT22;50151;52.030;5.350;2023-07-13T16:45:38;24.10;99.90
63966;DHT22;50151;52.030;5.350;2023-07-13T16:48:14;23.90;99.90
63966;DHT22;50151;52.030;5.350;2023-07-13T16:50:52;23.80;99.90
63966;DHT22;50151;52.030;5.350;2023-07-13T16:53:26;23.50;99.90
63966;DHT22;50151;52.030;5.350;2023-07-13T16:55:55;23.60;99.90
63966;DHT22;50151;52.030;5.350;2023-07-13T16:58:24;23.30;99.90
63966;DHT22;50151;52.030;5.350;2023-07-13T17:00:53;23.40;99.90
63966;DHT22;50151;52.030;5.350;2023-07-13T17:03:20;23.30;99.90
63966;DHT22;50151;52.030;5.350;2023-07-13T17:05:47;23.50;99.90
63966;DHT22;50151;52.030;5.350;2023-07-13T17:08:27;23.20;99.90
63966;DHT22;50151;52.030;5.350;2023-07-13T17:10:57;23.30;99.90
63966;DHT22;50151;52.030;5.350;2023-07-13T17:13:26;23.20;99.90
63966;DHT22;50151;52.030;5.350;2023-07-13T17:15:55;23.00;99.90
63966;DHT22;50151;52.030;5.350;2023-07-13T17:18:30;23.00;99.90
63966;DHT22;50151;52.030;5.350;2023-07-13T17:21:06;22.90;99.90
63966;DHT22;50151;52.030;5.350;2023-07-13T17:23:34;22.90;99.90
63966;DHT22;50151;52.030;5.350;2023-07-13T17:26:02;22.80;99.90
63966;DHT22;50151;52.030;5.350;2023-07-13T17:28:31;22.70;99.90
63966;DHT22;50151;52.030;5.350;2023-07-13T17:30:59;22.80;99.90
63966;DHT22;50151;52.030;5.350;2023-07-13T17:35:58;22.80;99.90
63966;DHT22;50151;52.030;5.350;2023-07-13T17:38:40;22.80;99.90
63966;DHT22;50151;52.030;5.350;2023-07-13T17:41:09;23.00;99.90
63966;DHT22;50151;52.030;5.350;2023-07-13T17:43:38;23.00;99.90
63966;DHT22;50151;52.030;5.350;2023-07-13T17:46:18;23.00;99.90
63966;DHT22;50151;52.030;5.350;2023-07-13T17:48:48;23.10;99.90
63966;DHT22;50151;52.030;5.350;2023-07-13T17:51:18;23.00;99.90
63966;DHT22;50151;52.030;5.350;2023-07-13T17:53:50;23.00;99.90
63966;DHT22;50151;52.030;5.350;2023-07-13T17:56:17;23.00;99.90
63966;DHT22;50151;52.030;5.350;2023-07-13T17:58:45;23.00;99.90
63966;DHT22;50151;52.030;5.350;2023-07-13T18:01:20;23.20;99.90
63966;DHT22;50151;52.030;5.350;2023-07-13T18:03:51;23.00;99.90
63966;DHT22;50151;52.030;5.350;2023-07-13T18:06:32;22.80;99.90
63966;DHT22;50151;52.030;5.350;2023-07-13T18:09:03;23.10;99.90
63966;DHT22;50151;52.030;5.350;2023-07-13T18:11:39;23.20;99.90
63966;DHT22;50151;52.030;5.350;2023-07-13T18:14:06;23.50;99.90
63966;DHT22;50151;52.030;5.350;2023-07-13T18:16:33;23.40;99.90
63966;DHT22;50151;52.030;5.350;2023-07-13T18:19:02;23.40;99.90
63966;DHT22;50151;52.030;5.350;2023-07-13T18:21:31;23.70;99.90
63966;DHT22;50151;52.030;5.350;2023-07-13T18:24:00;23.50;99.90
63966;DHT22;50151;52.030;5.350;2023-07-13T18:26:28;23.10;99.90
63966;DHT22;50151;52.030;5.350;2023-07-13T18:28:55;23.30;99.90
63966;DHT22;50151;52.030;5.350;2023-07-13T18:31:25;23.10;99.90
63966;DHT22;50151;52.030;5.350;2023-07-13T18:33:56;22.90;99.90
63966;DHT22;50151;52.030;5.350;2023-07-13T18:36:24;22.60;99.90
63966;DHT22;50151;52.030;5.350;2023-07-13T18:38:52;22.30;99.90
63966;DHT22;50151;52.030;5.350;2023-07-13T18:41:20;22.50;99.90
63966;DHT22;50151;52.030;5.350;2023-07-13T18:43:48;22.30;99.90
63966;DHT22;50151;52.030;5.350;2023-07-13T18:46:29;22.30;99.90
63966;DHT22;50151;52.030;5.350;2023-07-13T18:49:03;22.50;99.90
63966;DHT22;50151;52.030;5.350;2023-07-13T18:51:30;22.30;99.90
63966;DHT22;50151;52.030;5.350;2023-07-13T18:53:58;22.20;99.90
63966;DHT22;50151;52.030;5.350;2023-07-13T18:56:25;22.30;99.90
63966;DHT22;50151;52.030;5.350;2023-07-13T18:58:52;22.00;99.90
63966;DHT22;50151;52.030;5.350;2023-07-13T19:01:27;21.90;99.90
63966;DHT22;50151;52.030;5.350;2023-07-13T19:03:56;21.90;99.90
63966;DHT22;50151;52.030;5.350;2023-07-13T19:06:22;21.90;99.90
63966;DHT22;50151;52.030;5.350;2023-07-13T19:08:50;21.90;99.90
63966;DHT22;50151;52.030;5.350;2023-07-13T19:11:19;22.00;99.90
63966;DHT22;50151;52.030;5.350;2023-07-13T19:13:47;21.80;99.90
63966;DHT22;50151;52.030;5.350;2023-07-13T19:16:18;21.70;99.90
63966;DHT22;50151;52.030;5.350;2023-07-13T19:18:45;21.70;99.90
63966;DHT22;50151;52.030;5.350;2023-07-13T19:21:35;21.70;99.90
63966;DHT22;50151;52.030;5.350;2023-07-13T19:24:08;21.70;99.90
63966;DHT22;50151;52.030;5.350;2023-07-13T19:26:37;21.70;99.90
63966;DHT22;50151;52.030;5.350;2023-07-13T19:29:05;21.60;99.90
63966;DHT22;50151;52.030;5.350;2023-07-13T19:31:34;21.50;99.90
63966;DHT22;50151;52.030;5.350;2023-07-13T19:36:37;21.40;99.90
63966;DHT22;50151;52.030;5.350;2023-07-13T19:39:05;21.40;99.90
63966;DHT22;50151;52.030;5.350;2023-07-13T19:41:39;21.30;99.90
63966;DHT22;50151;52.030;5.350;2023-07-13T19:44:12;21.30;99.90
63966;DHT22;50151;52.030;5.350;2023-07-13T19:46:39;21.10;99.90
63966;DHT22;50151;52.030;5.350;2023-07-13T19:49:07;21.00;99.90
63966;DHT22;50151;52.030;5.350;2023-07-13T19:51:34;20.90;99.90
63966;DHT22;50151;52.030;5.350;2023-07-13T19:54:10;20.80;99.90
63966;DHT22;50151;52.030;5.350;2023-07-13T19:56:38;20.80;99.90
63966;DHT22;50151;52.030;5.350;2023-07-13T19:59:27;20.60;99.90
63966;DHT22;50151;52.030;5.350;2023-07-13T20:01:55;20.60;99.90
63966;DHT22;50151;52.030;5.350;2023-07-13T20:04:22;20.50;99.90
63966;DHT22;50151;52.030;5.350;2023-07-13T20:06:49;20.40;99.90
63966;DHT22;50151;52.030;5.350;2023-07-13T20:09:24;20.40;99.90
63966;DHT22;50151;52.030;5.350;2023-07-13T20:11:54;20.30;99.90
63966;DHT22;50151;52.030;5.350;2023-07-13T20:14:26;20.20;99.90
63966;DHT22;50151;52.030;5.350;2023-07-13T20:17:00;20.20;99.90
63966;DHT22;50151;52.030;5.350;2023-07-13T20:19:33;20.10;99.90
63966;DHT22;50151;52.030;5.350;2023-07-13T20:22:02;20.00;99.90
63966;DHT22;50151;52.030;5.350;2023-07-13T20:24:30;19.80;99.90
63966;DHT22;50151;52.030;5.350;2023-07-13T20:26:56;19.80;99.90
63966;DHT22;50151;52.030;5.350;2023-07-13T20:29:23;19.70;99.90
63966;DHT22;50151;52.030;5.350;2023-07-13T20:31:50;19.70;99.90
